Springer, NM (87747)

3:16 PM MDT on April 26, 2015 (GMT -0600)
Raton Municipal-Crews | | Change Station
CLOSE
Current Station
Airport
Location: Raton,
Elevation: 6352 ft
Nearby Weather Stations

Elev 6352 ft 36.74 °N, 104.50 °W | Updated 23 minutes ago

Overcast
Overcast
58 °F
Feels Like 58 °F
N
20
Wind Variable Wind from SSE
Gusts 32 mph

Today
High -- | Low -- °F
--% Chance of Precip.
Yesterday
High -- | Low -- °F
Precip. -- in
6:10 AM 7:40 PM
First Quarter, 58% visible
Pressure 29.59 in
Visibility 10.0 miles
Clouds Few 3500 ft
Mostly Cloudy 6500 ft
Mostly Cloudy 8000 ft
Dew Point 29 °F
Humidity 33%
Rainfall 0.00 in
Snow Depth Not available.
UV 5 out of 12
Pollen 8.60 out of 12
Air Quality Not available.
Flu Activity Local Activity
METAR KRTN 262053Z AUTO 16017G28KT 10SM FEW035 BKN065 BKN080 14/M02 A2973 RMK AO2 PK WND 20038/2031 WSHFT 2023 LTG DSNT NW-E SLP020 60000 T01441017 58001

More Conditions Fewer Conditions

Pressure 29.59 in
Visibility 10.0 miles
Clouds Few 3500 ft
Mostly Cloudy 6500 ft
Mostly Cloudy 8000 ft
Dew Point 29 °F
Humidity 33%
Rainfall 0.00 in
Snow Depth Not available.
UV 5 out of 12
Pollen 8.60 out of 12
Air Quality Not available.
Flu Activity Local Activity
METAR KRTN 262053Z AUTO 16017G28KT 10SM FEW035 BKN065 BKN080 14/M02 A2973 RMK AO2 PK WND 20038/2031 WSHFT 2023 LTG DSNT NW-E SLP020 60000 T01441017 58001

More Conditions Fewer Conditions

The full scope of the disaster following a powerful 7.8-magnitude earthquake in Nepal may not come into view for days, but global charities are already sending emergency aid. Click to see how you can help.
Nowcast | as of 1:26 PM MDT on April 26, 2015

Widespread rain and snow showers will continue over northwest and north central New Mexico through mid afternoon. Even an isolated thunderstorm will dot the landscape...mainly in the vicinity of Red River...Costilla...and Los Pinos. The precipitation was developing and being enhanced to the north of a low pressure center aloft that was slowly tracking eastward just northwest of Albuquerque. Significant snowfall accumulations will be limited to the higher terrain generally above 9000 feet where another up to 2 inches are possible before 3pm.

×

10-Day Weather Forecast

Almanac

Astronomy

Apr. 26, 2015 Rise Set
Actual Time
Civil Twilight
Nautical Twilight
Astronomical Twilight
Moon
Length of Visible Light
Length of Day
Tomorrow will be .
, % of the Moon is Illuminated

Today's Extremes

State Highs State Lows

Community

WunderPhotos

Upload Photos

1,817,126 photos uploaded!

WunderBlogs® & News

Nearby

Air Quality

  Air Quality AQ Index Pollutant
Not available.

Snow Depth

Station Depth Elevation

Earthquake Activity

City Distance Mag. Time & Date
Minimum magnitude displayed is 2.5.

Coastal Water Temperatures

Place Temperature

Stations

Nearby Weather Stations

Station Location Temp. Windchill Dew Point Humidity Wind Precip. Elev Updated Type